sensor_id;sensor_type;location;lat;lon;timestamp;pressure;altitude;pressure_sealevel;temperature;humidity
40117;BME280;25829;50.228;18.936;2023-07-28T00:02:03;97823.03;;;17.18;49.78
40117;BME280;25829;50.228;18.936;2023-07-28T00:05:04;97823.81;;;17.18;49.74
40117;BME280;25829;50.228;18.936;2023-07-28T00:08:05;97808.63;;;17.19;49.78
40117;BME280;25829;50.228;18.936;2023-07-28T00:11:14;97815.31;;;17.21;49.86
40117;BME280;25829;50.228;18.936;2023-07-28T00:14:14;97816.88;;;17.23;49.86
40117;BME280;25829;50.228;18.936;2023-07-28T00:17:15;97808.63;;;17.24;49.93
40117;BME280;25829;50.228;18.936;2023-07-28T00:20:17;97797.16;;;17.24;49.87
40117;BME280;25829;50.228;18.936;2023-07-28T00:23:17;97807.81;;;17.24;49.98
40117;BME280;25829;50.228;18.936;2023-07-28T00:26:18;97799.03;;;17.23;49.97
40117;BME280;25829;50.228;18.936;2023-07-28T00:29:19;97797.94;;;17.24;50.09
40117;BME280;25829;50.228;18.936;2023-07-28T00:32:20;97795.56;;;17.23;50.03
40117;BME280;25829;50.228;18.936;2023-07-28T00:35:20;97798.75;;;17.19;50.17
40117;BME280;25829;50.228;18.936;2023-07-28T00:38:21;97790.25;;;17.17;50.27
40117;BME280;25829;50.228;18.936;2023-07-28T00:41:22;97787.84;;;17.16;50.46
40117;BME280;25829;50.228;18.936;2023-07-28T00:44:23;97792.63;;;17.14;50.68
40117;BME280;25829;50.228;18.936;2023-07-28T00:47:24;97781.97;;;17.14;50.89
40117;BME280;25829;50.228;18.936;2023-07-28T00:50:28;97791.03;;;17.13;51.20
40117;BME280;25829;50.228;18.936;2023-07-28T00:53:29;97792.63;;;17.14;51.13
40117;BME280;25829;50.228;18.936;2023-07-28T00:56:30;97783.03;;;17.13;51.43
40117;BME280;25829;50.228;18.936;2023-07-28T00:59:31;97789.41;;;17.12;51.62
40117;BME280;25829;50.228;18.936;2023-07-28T01:02:32;97782.22;;;17.12;51.83
40117;BME280;25829;50.228;18.936;2023-07-28T01:05:49;97792.06;;;17.12;52.44
40117;BME280;25829;50.228;18.936;2023-07-28T01:09:01;97792.31;;;17.10;52.52
40117;BME280;25829;50.228;18.936;2023-07-28T01:12:07;97790.47;;;17.11;52.70
40117;BME280;25829;50.228;18.936;2023-07-28T01:15:10;97783.28;;;17.11;52.68
40117;BME280;25829;50.228;18.936;2023-07-28T01:18:20;97779.28;;;17.09;53.73
40117;BME280;25829;50.228;18.936;2023-07-28T01:21:28;97768.88;;;17.02;53.86
40117;BME280;25829;50.228;18.936;2023-07-28T01:27:50;97756.09;;;16.99;53.64
40117;BME280;25829;50.228;18.936;2023-07-28T01:30:51;97749.16;;;16.98;53.80
40117;BME280;25829;50.228;18.936;2023-07-28T01:33:52;97756.09;;;16.99;53.73
40117;BME280;25829;50.228;18.936;2023-07-28T01:36:53;97750.50;;;17.01;53.76
40117;BME280;25829;50.228;18.936;2023-07-28T01:39:54;97759.56;;;17.05;53.94
40117;BME280;25829;50.228;18.936;2023-07-28T01:42:55;97746.75;;;17.07;53.80
40117;BME280;25829;50.228;18.936;2023-07-28T01:45:57;97747.84;;;17.11;53.96
40117;BME280;25829;50.228;18.936;2023-07-28T01:48:57;97742.81;;;17.14;53.84
40117;BME280;25829;50.228;18.936;2023-07-28T01:51:58;97743.88;;;17.18;53.67
40117;BME280;25829;50.228;18.936;2023-07-28T01:54:59;97743.84;;;17.24;53.61
40117;BME280;25829;50.228;18.936;2023-07-28T01:58:00;97738.25;;;17.30;53.48
40117;BME280;25829;50.228;18.936;2023-07-28T02:01:02;97737.72;;;17.33;53.68
40117;BME280;25829;50.228;18.936;2023-07-28T02:04:03;97738.25;;;17.35;53.55
40117;BME280;25829;50.228;18.936;2023-07-28T02:07:04;97736.09;;;17.37;53.54
40117;BME280;25829;50.228;18.936;2023-07-28T02:10:05;97729.19;;;17.36;53.60
40117;BME280;25829;50.228;18.936;2023-07-28T02:13:06;97731.84;;;17.36;53.67
40117;BME280;25829;50.228;18.936;2023-07-28T02:16:07;97733.44;;;17.37;53.52
40117;BME280;25829;50.228;18.936;2023-07-28T02:19:07;97729.72;;;17.33;53.44
40117;BME280;25829;50.228;18.936;2023-07-28T02:22:08;97725.19;;;17.34;53.40
40117;BME280;25829;50.228;18.936;2023-07-28T02:25:09;97725.47;;;17.32;53.79
40117;BME280;25829;50.228;18.936;2023-07-28T02:28:11;97713.72;;;17.33;53.72
40117;BME280;25829;50.228;18.936;2023-07-28T02:31:12;97727.03;;;17.33;53.83
40117;BME280;25829;50.228;18.936;2023-07-28T02:34:13;97723.31;;;17.34;53.96
40117;BME280;25829;50.228;18.936;2023-07-28T02:37:14;97721.19;;;17.31;54.08
40117;BME280;25829;50.228;18.936;2023-07-28T02:40:15;97722.53;;;17.29;54.12
40117;BME280;25829;50.228;18.936;2023-07-28T02:43:16;97716.91;;;17.30;54.21
40117;BME280;25829;50.228;18.936;2023-07-28T02:46:17;97710.53;;;17.31;54.32
40117;BME280;25829;50.228;18.936;2023-07-28T02:49:17;97727.31;;;17.27;54.17
40117;BME280;25829;50.228;18.936;2023-07-28T02:52:18;97718.53;;;17.26;54.28
40117;BME280;25829;50.228;18.936;2023-07-28T02:55:19;97711.59;;;17.25;54.46
40117;BME280;25829;50.228;18.936;2023-07-28T02:58:20;97712.66;;;17.24;54.61
40117;BME280;25829;50.228;18.936;2023-07-28T03:01:20;97712.41;;;17.26;54.72
40117;BME280;25829;50.228;18.936;2023-07-28T03:04:21;97717.44;;;17.27;54.65
40117;BME280;25829;50.228;18.936;2023-07-28T03:07:58;97718.00;;;17.29;54.88
40117;BME280;25829;50.228;18.936;2023-07-28T03:10:59;97719.34;;;17.32;54.81
40117;BME280;25829;50.228;18.936;2023-07-28T03:14:02;97709.97;;;17.34;55.06
40117;BME280;25829;50.228;18.936;2023-07-28T03:17:03;97713.75;;;17.28;55.18
40117;BME280;25829;50.228;18.936;2023-07-28T03:20:05;97705.47;;;17.19;55.19
40117;BME280;25829;50.228;18.936;2023-07-28T03:23:06;97691.88;;;17.11;55.44
40117;BME280;25829;50.228;18.936;2023-07-28T03:26:07;97695.06;;;17.03;55.43
40117;BME280;25829;50.228;18.936;2023-07-28T03:29:08;97701.47;;;16.96;55.44
40117;BME280;25829;50.228;18.936;2023-07-28T03:32:08;97698.00;;;16.96;55.54
40117;BME280;25829;50.228;18.936;2023-07-28T03:35:09;97700.41;;;16.97;55.54
40117;BME280;25829;50.228;18.936;2023-07-28T03:38:15;97697.72;;;17.03;55.48
40117;BME280;25829;50.228;18.936;2023-07-28T03:41:15;97703.59;;;17.05;55.60
40117;BME280;25829;50.228;18.936;2023-07-28T03:44:16;97704.41;;;17.05;55.41
40117;BME280;25829;50.228;18.936;2023-07-28T03:47:19;97706.78;;;17.02;55.36
40117;BME280;25829;50.228;18.936;2023-07-28T03:50:20;97704.13;;;17.02;55.34
40117;BME280;25829;50.228;18.936;2023-07-28T03:53:21;97708.66;;;17.01;55.31
40117;BME280;25829;50.228;18.936;2023-07-28T03:56:22;97700.13;;;16.99;55.45
40117;BME280;25829;50.228;18.936;2023-07-28T03:59:22;97699.88;;;16.95;55.31
40117;BME280;25829;50.228;18.936;2023-07-28T04:02:23;97695.09;;;16.97;55.46
40117;BME280;25829;50.228;18.936;2023-07-28T04:05:24;97702.53;;;17.01;55.68
40117;BME280;25829;50.228;18.936;2023-07-28T04:08:25;97697.72;;;17.03;55.79
40117;BME280;25829;50.228;18.936;2023-07-28T04:11:25;97693.47;;;17.02;56.01
40117;BME280;25829;50.228;18.936;2023-07-28T04:14:26;97695.34;;;17.01;56.16
40117;BME280;25829;50.228;18.936;2023-07-28T04:17:27;97687.06;;;17.03;56.33
40117;BME280;25829;50.228;18.936;2023-07-28T04:20:29;97688.69;;;17.04;56.31
40117;BME280;25829;50.228;18.936;2023-07-28T04:23:29;97694.53;;;17.06;56.34
40117;BME280;25829;50.228;18.936;2023-07-28T04:26:31;97687.34;;;17.06;56.32
40117;BME280;25829;50.228;18.936;2023-07-28T04:29:35;97674.81;;;17.07;56.36
40117;BME280;25829;50.228;18.936;2023-07-28T04:32:39;97681.22;;;17.06;56.28
40117;BME280;25829;50.228;18.936;2023-07-28T04:35:46;97686.81;;;17.04;56.39
40117;BME280;25829;50.228;18.936;2023-07-28T04:38:50;97674.81;;;17.02;56.62
40117;BME280;25829;50.228;18.936;2023-07-28T04:41:50;97676.44;;;16.97;56.61
40117;BME280;25829;50.228;18.936;2023-07-28T04:44:51;97676.16;;;16.94;56.73
40117;BME280;25829;50.228;18.936;2023-07-28T04:47:53;97669.22;;;16.93;56.71
40117;BME280;25829;50.228;18.936;2023-07-28T04:50:54;97670.03;;;16.93;56.81
40117;BME280;25829;50.228;18.936;2023-07-28T04:54:24;97675.63;;;16.92;56.75
40117;BME280;25829;50.228;18.936;2023-07-28T04:57:25;97680.97;;;16.92;56.93
40117;BME280;25829;50.228;18.936;2023-07-28T05:00:26;97677.78;;;16.90;57.32
40117;BME280;25829;50.228;18.936;2023-07-28T05:03:27;97679.09;;;16.87;57.47
40117;BME280;25829;50.228;18.936;2023-07-28T05:06:47;97677.75;;;16.85;57.94
40117;BME280;25829;50.228;18.936;2023-07-28T05:09:48;97684.94;;;16.79;58.43
40117;BME280;25829;50.228;18.936;2023-07-28T05:12:49;97687.09;;;16.77;58.37
40117;BME280;25829;50.228;18.936;2023-07-28T05:15:50;97677.75;;;16.74;58.76
40117;BME280;25829;50.228;18.936;2023-07-28T05:19:06;97679.38;;;16.70;59.02
40117;BME280;25829;50.228;18.936;2023-07-28T05:22:22;97688.41;;;16.64;59.18
40117;BME280;25829;50.228;18.936;2023-07-28T05:25:27;97686.28;;;16.61;59.59
40117;BME280;25829;50.228;18.936;2023-07-28T05:28:27;97685.22;;;16.57;59.66
40117;BME280;25829;50.228;18.936;2023-07-28T05:31:30;97693.19;;;16.57;60.15
40117;BME280;25829;50.228;18.936;2023-07-28T05:34:32;97680.94;;;16.51;61.25
40117;BME280;25829;50.228;18.936;2023-07-28T05:37:33;97680.94;;;16.41;61.52
40117;BME280;25829;50.228;18.936;2023-07-28T05:40:34;97677.22;;;16.32;62.89
40117;BME280;25829;50.228;18.936;2023-07-28T05:43:35;97674.75;;;16.20;63.60
40117;BME280;25829;50.228;18.936;2023-07-28T05:46:36;97676.84;;;16.13;63.73
40117;BME280;25829;50.228;18.936;2023-07-28T05:49:38;97677.66;;;16.08;64.42
40117;BME280;25829;50.228;18.936;2023-07-28T05:52:39;97671.25;;;16.04;65.39
40117;BME280;25829;50.228;18.936;2023-07-28T05:55:40;97673.66;;;16.00;65.07
40117;BME280;25829;50.228;18.936;2023-07-28T05:58:42;97669.91;;;16.01;65.22
40117;BME280;25829;50.228;18.936;2023-07-28T06:01:44;97673.13;;;16.03;65.84
40117;BME280;25829;50.228;18.936;2023-07-28T06:05:05;97673.38;;;16.02;65.88
40117;BME280;25829;50.228;18.936;2023-07-28T06:08:06;97679.25;;;16.09;65.72
40117;BME280;25829;50.228;18.936;2023-07-28T06:11:08;97678.19;;;16.10;66.44
40117;BME280;25829;50.228;18.936;2023-07-28T06:14:09;97681.94;;;16.14;66.45
40117;BME280;25829;50.228;18.936;2023-07-28T06:17:11;97682.72;;;16.20;66.99
40117;BME280;25829;50.228;18.936;2023-07-28T06:20:12;97682.72;;;16.20;67.65
40117;BME280;25829;50.228;18.936;2023-07-28T06:23:13;97693.66;;;16.18;67.80
40117;BME280;25829;50.228;18.936;2023-07-28T06:26:18;97688.56;;;16.12;69.19
40117;BME280;25829;50.228;18.936;2023-07-28T06:29:18;97699.97;;;16.02;70.63
40117;BME280;25829;50.228;18.936;2023-07-28T06:32:19;97699.97;;;15.97;70.45
40117;BME280;25829;50.228;18.936;2023-07-28T06:35:23;97699.66;;;15.88;71.38
40117;BME280;25829;50.228;18.936;2023-07-28T06:38:24;97701.47;;;15.77;72.61
40117;BME280;25829;50.228;18.936;2023-07-28T06:41:25;97696.16;;;15.72;72.34
40117;BME280;25829;50.228;18.936;2023-07-28T06:44:33;97699.31;;;15.69;72.83
40117;BME280;25829;50.228;18.936;2023-07-28T06:47:34;97704.38;;;15.66;73.72
40117;BME280;25829;50.228;18.936;2023-07-28T06:50:35;97711.00;;;15.63;73.71
40117;BME280;25829;50.228;18.936;2023-07-28T06:53:36;97712.84;;;15.63;73.99
40117;BME280;25829;50.228;18.936;2023-07-28T06:56:40;97712.34;;;15.66;74.20
40117;BME280;25829;50.228;18.936;2023-07-28T06:59:41;97717.94;;;15.69;74.19
40117;BME280;25829;50.228;18.936;2023-07-28T07:02:45;97706.25;;;15.70;74.93
40117;BME280;25829;50.228;18.936;2023-07-28T07:05:47;97716.31;;;15.68;74.70
40117;BME280;25829;50.228;18.936;2023-07-28T07:08:48;97716.06;;;15.70;75.13
40117;BME280;25829;50.228;18.936;2023-07-28T07:11:49;97725.66;;;15.71;76.26
40117;BME280;25829;50.228;18.936;2023-07-28T07:14:50;97719.25;;;15.67;76.07
40117;BME280;25829;50.228;18.936;2023-07-28T07:17:50;97724.28;;;15.63;76.34
40117;BME280;25829;50.228;18.936;2023-07-28T07:20:54;97722.69;;;15.62;76.13
40117;BME280;25829;50.228;18.936;2023-07-28T07:23:55;97717.91;;;15.64;76.58
40117;BME280;25829;50.228;18.936;2023-07-28T07:27:04;97718.16;;;15.63;77.74
40117;BME280;25829;50.228;18.936;2023-07-28T07:30:06;97719.75;;;15.59;77.12
40117;BME280;25829;50.228;18.936;2023-07-28T07:33:13;97720.56;;;15.59;77.15
40117;BME280;25829;50.228;18.936;2023-07-28T07:36:26;97722.69;;;15.62;77.03
40117;BME280;25829;50.228;18.936;2023-07-28T07:39:29;97732.56;;;15.72;77.20
40117;BME280;25829;50.228;18.936;2023-07-28T07:42:48;97726.25;;;15.83;77.69
40117;BME280;25829;50.228;18.936;2023-07-28T07:45:58;97730.81;;;15.93;77.52
40117;BME280;25829;50.228;18.936;2023-07-28T07:48:59;97740.16;;;16.00;77.23
40117;BME280;25829;50.228;18.936;2023-07-28T07:51:59;97723.41;;;16.05;77.86
40117;BME280;25829;50.228;18.936;2023-07-28T07:55:00;97724.19;;;16.06;77.51
40117;BME280;25829;50.228;18.936;2023-07-28T07:58:01;97728.47;;;16.12;77.85
40117;BME280;25829;50.228;18.936;2023-07-28T08:01:14;97731.13;;;16.12;77.79
40117;BME280;25829;50.228;18.936;2023-07-28T08:04:15;97734.09;;;16.15;77.94
40117;BME280;25829;50.228;18.936;2023-07-28T08:07:16;97746.66;;;16.25;78.30
40117;BME280;25829;50.228;18.936;2023-07-28T08:10:26;97744.53;;;16.32;78.55
40117;BME280;25829;50.228;18.936;2023-07-28T08:13:27;97738.19;;;16.43;78.61
40117;BME280;25829;50.228;18.936;2023-07-28T08:16:36;97738.22;;;16.59;78.92
40117;BME280;25829;50.228;18.936;2023-07-28T08:19:45;97733.44;;;16.66;78.71
40117;BME280;25829;50.228;18.936;2023-07-28T08:22:49;97733.44;;;16.71;78.47
40117;BME280;25829;50.228;18.936;2023-07-28T08:25:50;97737.41;;;16.79;78.12
40117;BME280;25829;50.228;18.936;2023-07-28T08:28:51;97724.91;;;16.89;78.12
40117;BME280;25829;50.228;18.936;2023-07-28T08:31:52;97739.31;;;16.98;78.05
40117;BME280;25829;50.228;18.936;2023-07-28T08:34:53;97735.56;;;17.05;77.44
40117;BME280;25829;50.228;18.936;2023-07-28T08:37:54;97738.50;;;17.08;77.18
40117;BME280;25829;50.228;18.936;2023-07-28T08:41:00;97740.66;;;17.11;76.59
40117;BME280;25829;50.228;18.936;2023-07-28T08:44:03;97744.63;;;17.09;76.19
40117;BME280;25829;50.228;18.936;2023-07-28T08:47:07;97747.31;;;17.09;76.08
40117;BME280;25829;50.228;18.936;2023-07-28T08:50:08;97748.09;;;17.09;75.77
40117;BME280;25829;50.228;18.936;2023-07-28T08:53:09;97746.25;;;17.05;75.74
40117;BME280;25829;50.228;18.936;2023-07-28T08:56:10;97744.63;;;16.98;75.86
40117;BME280;25829;50.228;18.936;2023-07-28T08:59:34;97744.09;;;16.96;76.51
40117;BME280;25829;50.228;18.936;2023-07-28T09:02:42;97741.97;;;16.88;76.27
40117;BME280;25829;50.228;18.936;2023-07-28T09:06:02;97735.81;;;16.83;76.18
40117;BME280;25829;50.228;18.936;2023-07-28T09:09:15;97727.31;;;16.81;76.44
40117;BME280;25829;50.228;18.936;2023-07-28T09:12:23;97731.59;;;16.77;76.85
40117;BME280;25829;50.228;18.936;2023-07-28T09:15:24;97748.06;;;16.79;76.54
40117;BME280;25829;50.228;18.936;2023-07-28T09:18:28;97751.53;;;16.79;76.68
40117;BME280;25829;50.228;18.936;2023-07-28T09:21:29;97757.41;;;16.81;77.22
40117;BME280;25829;50.228;18.936;2023-07-28T09:24:31;97754.47;;;16.83;77.17
40117;BME280;25829;50.228;18.936;2023-07-28T09:27:52;97739.06;;;16.90;77.03
40117;BME280;25829;50.228;18.936;2023-07-28T09:30:53;97745.44;;;16.99;77.18
40117;BME280;25829;50.228;18.936;2023-07-28T09:33:54;97738.50;;;17.08;76.65
40117;BME280;25829;50.228;18.936;2023-07-28T09:37:01;97748.91;;;17.20;76.73
40117;BME280;25829;50.228;18.936;2023-07-28T09:40:08;97742.53;;;17.26;76.68
40117;BME280;25829;50.228;18.936;2023-07-28T09:43:12;97742.47;;;17.41;76.45
40117;BME280;25829;50.228;18.936;2023-07-28T09:46:17;97744.34;;;17.56;75.94
40117;BME280;25829;50.228;18.936;2023-07-28T09:49:39;97743.78;;;17.69;75.71
40117;BME280;25829;50.228;18.936;2023-07-28T09:52:50;97748.56;;;17.78;75.03
40117;BME280;25829;50.228;18.936;2023-07-28T09:55:55;97750.09;;;17.89;75.03
40117;BME280;25829;50.228;18.936;2023-07-28T09:58:57;97749.56;;;17.97;74.32
40117;BME280;25829;50.228;18.936;2023-07-28T10:01:58;97749.56;;;18.02;73.92
40117;BME280;25829;50.228;18.936;2023-07-28T10:05:04;97753.28;;;18.11;73.22
40117;BME280;25829;50.228;18.936;2023-07-28T10:08:07;97748.69;;;18.22;73.11
40117;BME280;25829;50.228;18.936;2023-07-28T10:11:18;97747.00;;;18.31;72.65
40117;BME280;25829;50.228;18.936;2023-07-28T10:15:10;97736.06;;;18.33;72.34
40117;BME280;25829;50.228;18.936;2023-07-28T10:17:51;97750.22;;;18.33;72.21
40117;BME280;25829;50.228;18.936;2023-07-28T10:21:07;97740.03;;;18.40;72.23
40117;BME280;25829;50.228;18.936;2023-07-28T10:24:14;97749.09;;;18.45;71.88
40117;BME280;25829;50.228;18.936;2023-07-28T10:30:57;97749.03;;;18.55;71.59
40117;BME280;25829;50.228;18.936;2023-07-28T10:33:58;97753.78;;;18.63;71.45
40117;BME280;25829;50.228;18.936;2023-07-28T10:37:05;97762.81;;;18.72;70.79
40117;BME280;25829;50.228;18.936;2023-07-28T10:40:33;97771.31;;;18.79;70.88
40117;BME280;25829;50.228;18.936;2023-07-28T10:43:35;97767.84;;;18.84;70.64
40117;BME280;25829;50.228;18.936;2023-07-28T10:46:40;97773.31;;;19.03;70.99
40117;BME280;25829;50.228;18.936;2023-07-28T10:49:41;97776.63;;;19.24;71.17
40117;BME280;25829;50.228;18.936;2023-07-28T10:52:47;97769.16;;;19.50;70.72
40117;BME280;25829;50.228;18.936;2023-07-28T10:55:50;97758.16;;;19.80;70.35
40117;BME280;25829;50.228;18.936;2023-07-28T10:59:04;97757.31;;;20.09;68.66
40117;BME280;25829;50.228;18.936;2023-07-28T11:02:14;97759.72;;;20.29;67.55
40117;BME280;25829;50.228;18.936;2023-07-28T11:05:20;97760.66;;;20.39;67.14
40117;BME280;25829;50.228;18.936;2023-07-28T11:08:24;97766.22;;;20.47;67.16
40117;BME280;25829;50.228;18.936;2023-07-28T11:11:25;97773.53;;;20.61;67.20
40117;BME280;25829;50.228;18.936;2023-07-28T11:14:26;97757.53;;;20.74;67.42
40117;BME280;25829;50.228;18.936;2023-07-28T11:17:27;97757.50;;;20.93;67.12
40117;BME280;25829;50.228;18.936;2023-07-28T11:20:30;97748.72;;;21.07;66.55
40117;BME280;25829;50.228;18.936;2023-07-28T11:23:33;97745.44;;;21.10;65.69
40117;BME280;25829;50.228;18.936;2023-07-28T11:26:38;97753.97;;;21.12;65.09
40117;BME280;25829;50.228;18.936;2023-07-28T11:29:40;97746.69;;;21.17;65.39
40117;BME280;25829;50.228;18.936;2023-07-28T11:32:51;97759.91;;;21.28;64.90
40117;BME280;25829;50.228;18.936;2023-07-28T11:35:52;97760.66;;;21.33;64.67
40117;BME280;25829;50.228;18.936;2023-07-28T11:38:55;97756.75;;;21.39;64.31
40117;BME280;25829;50.228;18.936;2023-07-28T11:41:57;97767.41;;;21.44;63.80
40117;BME280;25829;50.228;18.936;2023-07-28T11:45:01;97761.25;;;21.44;63.41
40117;BME280;25829;50.228;18.936;2023-07-28T11:48:04;97758.06;;;21.42;63.84
40117;BME280;25829;50.228;18.936;2023-07-28T11:51:06;97768.78;;;21.42;63.93
40117;BME280;25829;50.228;18.936;2023-07-28T11:54:14;97766.03;;;21.47;64.04
40117;BME280;25829;50.228;18.936;2023-07-28T11:57:18;97768.41;;;21.49;63.91
40117;BME280;25829;50.228;18.936;2023-07-28T12:00:24;97771.41;;;21.47;63.50
40117;BME280;25829;50.228;18.936;2023-07-28T12:03:30;97770.88;;;21.45;63.72
40117;BME280;25829;50.228;18.936;2023-07-28T12:10:16;97763.56;;;21.64;63.32
40117;BME280;25829;50.228;18.936;2023-07-28T12:13:18;97763.34;;;21.75;62.97
40117;BME280;25829;50.228;18.936;2023-07-28T12:16:40;97771.34;;;21.80;61.64
40117;BME280;25829;50.228;18.936;2023-07-28T12:20:07;97764.47;;;21.74;62.03
40117;BME280;25829;50.228;18.936;2023-07-28T12:23:18;97757.59;;;21.67;62.89
40117;BME280;25829;50.228;18.936;2023-07-28T12:26:22;97750.94;;;21.65;62.64
40117;BME280;25829;50.228;18.936;2023-07-28T12:29:23;97764.16;;;21.61;62.53
40117;BME280;25829;50.228;18.936;2023-07-28T12:32:24;97752.81;;;21.51;62.34
40117;BME280;25829;50.228;18.936;2023-07-28T12:35:25;97755.88;;;21.44;62.54
40117;BME280;25829;50.228;18.936;2023-07-28T12:38:30;97752.19;;;21.40;62.71
40117;BME280;25829;50.228;18.936;2023-07-28T12:41:31;97753.06;;;21.35;63.13
40117;BME280;25829;50.228;18.936;2023-07-28T12:44:31;97768.97;;;21.32;62.95
40117;BME280;25829;50.228;18.936;2023-07-28T12:47:40;97768.25;;;21.26;63.12
40117;BME280;25829;50.228;18.936;2023-07-28T12:50:40;97772.63;;;21.22;63.42
40117;BME280;25829;50.228;18.936;2023-07-28T12:53:41;97759.06;;;21.13;63.48
40117;BME280;25829;50.228;18.936;2023-07-28T12:56:42;97764.81;;;21.07;63.77
40117;BME280;25829;50.228;18.936;2023-07-28T12:59:43;97770.53;;;21.00;63.98
40117;BME280;25829;50.228;18.936;2023-07-28T13:02:51;97768.44;;;20.97;64.33
40117;BME280;25829;50.228;18.936;2023-07-28T13:05:52;97774.59;;;20.97;64.44
40117;BME280;25829;50.228;18.936;2023-07-28T13:08:55;97758.28;;;20.94;64.26
40117;BME280;25829;50.228;18.936;2023-07-28T13:11:56;97764.88;;;21.02;64.59
40117;BME280;25829;50.228;18.936;2023-07-28T13:14:57;97769.59;;;21.10;64.42
40117;BME280;25829;50.228;18.936;2023-07-28T13:17:57;97766.81;;;21.15;63.87
40117;BME280;25829;50.228;18.936;2023-07-28T13:20:59;97766.97;;;21.23;63.60
40117;BME280;25829;50.228;18.936;2023-07-28T13:24:00;97776.81;;;21.28;63.17
40117;BME280;25829;50.228;18.936;2023-07-28T13:27:01;97767.38;;;21.31;62.93
40117;BME280;25829;50.228;18.936;2023-07-28T13:30:01;97776.94;;;21.37;62.53
40117;BME280;25829;50.228;18.936;2023-07-28T13:33:05;97765.69;;;21.35;62.25
40117;BME280;25829;50.228;18.936;2023-07-28T13:36:13;97768.00;;;21.41;62.68
40117;BME280;25829;50.228;18.936;2023-07-28T13:39:13;97764.63;;;21.50;62.43
40117;BME280;25829;50.228;18.936;2023-07-28T13:42:14;97769.13;;;21.54;62.07
40117;BME280;25829;50.228;18.936;2023-07-28T13:45:19;97760.47;;;21.57;62.23
40117;BME280;25829;50.228;18.936;2023-07-28T13:48:19;97767.13;;;21.60;61.85
40117;BME280;25829;50.228;18.936;2023-07-28T13:51:20;97764.44;;;21.60;61.73
40117;BME280;25829;50.228;18.936;2023-07-28T13:54:21;97760.06;;;21.64;61.61
40117;BME280;25829;50.228;18.936;2023-07-28T13:57:22;97779.06;;;21.67;61.20
40117;BME280;25829;50.228;18.936;2023-07-28T14:00:23;97762.75;;;21.64;60.62
40117;BME280;25829;50.228;18.936;2023-07-28T14:03:24;97757.69;;;21.62;60.94
40117;BME280;25829;50.228;18.936;2023-07-28T14:06:25;97756.41;;;21.74;61.19
40117;BME280;25829;50.228;18.936;2023-07-28T14:09:29;97754.31;;;21.84;61.30
40117;BME280;25829;50.228;18.936;2023-07-28T14:12:30;97746.41;;;21.93;60.92
40117;BME280;25829;50.228;18.936;2023-07-28T14:15:30;97744.91;;;22.01;60.99
40117;BME280;25829;50.228;18.936;2023-07-28T14:18:31;97748.69;;;22.00;60.57
40117;BME280;25829;50.228;18.936;2023-07-28T14:21:32;97748.88;;;22.03;60.76
40117;BME280;25829;50.228;18.936;2023-07-28T14:24:33;97746.47;;;22.02;60.84
40117;BME280;25829;50.228;18.936;2023-07-28T14:27:33;97739.16;;;21.93;60.93
40117;BME280;25829;50.228;18.936;2023-07-28T14:30:37;97738.31;;;21.79;61.16
40117;BME280;25829;50.228;18.936;2023-07-28T14:33:38;97742.69;;;21.61;61.44
40117;BME280;25829;50.228;18.936;2023-07-28T14:36:39;97737.78;;;21.50;62.13
40117;BME280;25829;50.228;18.936;2023-07-28T14:39:40;97738.50;;;21.41;62.50
40117;BME280;25829;50.228;18.936;2023-07-28T14:42:41;97731.13;;;21.33;62.56
40117;BME280;25829;50.228;18.936;2023-07-28T14:45:42;97726.63;;;21.29;63.04
40117;BME280;25829;50.228;18.936;2023-07-28T14:48:43;97717.41;;;21.35;63.21
40117;BME280;25829;50.228;18.936;2023-07-28T14:51:46;97715.34;;;21.45;63.23
40117;BME280;25829;50.228;18.936;2023-07-28T14:54:47;97712.47;;;21.56;62.50
40117;BME280;25829;50.228;18.936;2023-07-28T14:57:48;97718.44;;;21.66;62.37
40117;BME280;25829;50.228;18.936;2023-07-28T15:00:50;97711.47;;;21.79;62.30
40117;BME280;25829;50.228;18.936;2023-07-28T15:03:53;97710.28;;;21.85;61.37
40117;BME280;25829;50.228;18.936;2023-07-28T15:06:54;97707.28;;;21.87;61.39
40117;BME280;25829;50.228;18.936;2023-07-28T15:09:55;97698.34;;;21.91;61.17
40117;BME280;25829;50.228;18.936;2023-07-28T15:12:56;97710.50;;;22.03;61.33
40117;BME280;25829;50.228;18.936;2023-07-28T15:15:59;97717.53;;;22.12;60.92
40117;BME280;25829;50.228;18.936;2023-07-28T15:19:00;97716.63;;;22.17;60.75
40117;BME280;25829;50.228;18.936;2023-07-28T15:22:19;97711.16;;;22.22;60.26
40117;BME280;25829;50.228;18.936;2023-07-28T15:25:22;97720.81;;;22.23;59.99
40117;BME280;25829;50.228;18.936;2023-07-28T15:28:23;97725.88;;;22.25;59.72
40117;BME280;25829;50.228;18.936;2023-07-28T15:31:25;97719.72;;;22.24;59.62
40117;BME280;25829;50.228;18.936;2023-07-28T15:34:26;97717.03;;;22.24;59.83
40117;BME280;25829;50.228;18.936;2023-07-28T15:37:29;97709.44;;;22.26;59.84
40117;BME280;25829;50.228;18.936;2023-07-28T15:40:30;97707.25;;;22.28;59.92
40117;BME280;25829;50.228;18.936;2023-07-28T15:43:31;97711.03;;;22.27;59.72
40117;BME280;25829;50.228;18.936;2023-07-28T15:46:34;97706.28;;;22.24;59.77
40117;BME280;25829;50.228;18.936;2023-07-28T15:49:38;97713.03;;;22.22;59.99
40117;BME280;25829;50.228;18.936;2023-07-28T15:52:47;97719.00;;;22.18;59.75
40117;BME280;25829;50.228;18.936;2023-07-28T15:55:49;97714.38;;;22.10;59.52
40117;BME280;25829;50.228;18.936;2023-07-28T15:58:50;97715.03;;;22.02;59.66
40117;BME280;25829;50.228;18.936;2023-07-28T16:01:53;97716.66;;;21.89;59.49
40117;BME280;25829;50.228;18.936;2023-07-28T16:04:54;97719.03;;;21.77;59.75
40117;BME280;25829;50.228;18.936;2023-07-28T16:08:02;97715.66;;;21.72;60.17
40117;BME280;25829;50.228;18.936;2023-07-28T16:11:03;97724.59;;;21.67;60.39